createdAt,value
2022-11-13T00:00:37.071Z,553.00
2022-11-13T00:05:36.304Z,624.00
2022-11-13T00:10:35.505Z,605.00
2022-11-13T00:15:35.697Z,520.00
2022-11-13T00:20:35.869Z,549.00
2022-11-13T00:25:34.052Z,562.00
2022-11-13T00:30:32.293Z,554.00
2022-11-13T00:35:31.505Z,773.00
2022-11-13T00:40:30.689Z,805.00
2022-11-13T00:45:29.887Z,800.00
2022-11-13T00:50:30.057Z,791.00
2022-11-13T00:55:28.230Z,780.00
2022-11-13T01:00:27.404Z,778.00
2022-11-13T01:05:26.591Z,771.00
2022-11-13T01:10:25.789Z,767.00
2022-11-13T01:15:24.999Z,759.00
2022-11-13T01:20:25.183Z,750.00
2022-11-13T01:25:23.349Z,744.00
2022-11-13T01:30:24.590Z,739.00
2022-11-13T01:35:21.891Z,736.00
2022-11-13T01:40:23.253Z,729.00
2022-11-13T01:45:22.540Z,723.00
2022-11-13T01:50:19.858Z,719.00
2022-11-13T01:55:19.141Z,719.00
2022-11-13T02:00:19.442Z,710.00
2022-11-13T02:05:17.739Z,707.00
2022-11-13T02:10:18.037Z,710.00
2022-11-13T02:15:17.345Z,702.00
2022-11-13T02:20:15.669Z,704.00
2022-11-13T02:25:15.833Z,693.00
2022-11-13T02:30:16.042Z,691.00
2022-11-13T02:35:13.290Z,688.00
2022-11-13T02:40:14.614Z,700.00
2022-11-13T02:45:11.936Z,695.00
2022-11-13T02:50:12.036Z,687.00
2022-11-13T02:55:10.345Z,680.00
2022-11-13T03:00:13.804Z,682.00
2022-11-13T03:05:12.921Z,680.00
2022-11-13T03:10:09.104Z,678.00
2022-11-13T03:15:07.408Z,679.00
2022-11-13T03:20:06.705Z,677.00
2022-11-13T03:25:10.151Z,671.00
2022-11-13T03:30:05.256Z,664.00
2022-11-13T03:35:05.551Z,669.00
2022-11-13T03:40:03.835Z,670.00
2022-11-13T03:45:03.128Z,662.00
2022-11-13T03:50:03.396Z,662.00
2022-11-13T03:55:02.668Z,659.00
2022-11-13T04:00:01.966Z,663.00
2022-11-13T04:05:00.276Z,661.00
2022-11-13T04:09:59.584Z,669.00
2022-11-13T04:14:58.912Z,667.00
2022-11-13T04:19:58.223Z,664.00
2022-11-13T04:24:59.531Z,670.00
2022-11-13T04:29:56.817Z,679.00
2022-11-13T04:34:56.146Z,660.00
2022-11-13T04:39:55.449Z,666.00
2022-11-13T04:44:54.745Z,667.00
2022-11-13T04:49:54.144Z,665.00
2022-11-13T04:54:53.262Z,657.00
2022-11-13T04:59:54.601Z,665.00
2022-11-13T05:04:51.907Z,663.00
2022-11-13T05:09:52.228Z,664.00
2022-11-13T05:14:50.538Z,662.00
2022-11-13T05:19:50.853Z,660.00
2022-11-13T05:24:48.132Z,655.00
2022-11-13T05:29:49.440Z,661.00
2022-11-13T05:34:49.715Z,664.00
2022-11-13T05:39:48.040Z,666.00
2022-11-13T05:44:48.120Z,657.00
2022-11-13T05:49:45.418Z,667.00
2022-11-13T05:54:46.742Z,664.00
2022-11-13T05:59:44.027Z,662.00
2022-11-13T06:04:43.336Z,670.00
2022-11-13T06:09:42.653Z,659.00
2022-11-13T06:14:42.964Z,662.00
2022-11-13T06:19:41.266Z,661.00
2022-11-13T06:24:41.570Z,654.00
2022-11-13T06:29:40.890Z,659.00
2022-11-13T06:34:40.198Z,656.00
2022-11-13T06:39:38.474Z,663.00
2022-11-13T06:44:37.756Z,661.00
2022-11-13T06:49:37.022Z,666.00
2022-11-13T06:54:36.300Z,662.00
2022-11-13T06:59:35.585Z,659.00
2022-11-13T07:04:35.860Z,672.00
2022-11-13T07:09:35.126Z,659.00
2022-11-13T07:14:34.405Z,667.00
2022-11-13T07:19:32.715Z,673.00
2022-11-13T07:24:33.055Z,675.00
2022-11-13T07:29:31.233Z,670.00
2022-11-13T07:34:32.379Z,673.00
2022-11-13T07:39:30.478Z,674.00
2022-11-13T07:44:52.945Z,678.00
2022-11-13T07:49:27.999Z,665.00
2022-11-13T07:54:27.297Z,679.00
2022-11-13T07:59:27.577Z,673.00
2022-11-13T08:04:26.898Z,671.00
2022-11-13T08:09:26.292Z,665.00
2022-11-13T08:14:24.391Z,667.00
2022-11-13T08:19:23.691Z,668.00
2022-11-13T08:24:23.977Z,665.00
2022-11-13T08:29:22.274Z,663.00
2022-11-13T08:34:22.585Z,669.00
2022-11-13T08:39:21.895Z,675.00
2022-11-13T08:44:20.032Z,672.00
2022-11-13T08:49:20.331Z,673.00
2022-11-13T08:54:19.617Z,673.00
2022-11-13T08:59:18.952Z,674.00
2022-11-13T09:04:17.096Z,693.00
2022-11-13T09:09:16.239Z,721.00
2022-11-13T09:14:16.386Z,741.00
2022-11-13T09:19:16.506Z,765.00
2022-11-13T09:24:15.861Z,821.00
2022-11-13T09:29:14.190Z,823.00
2022-11-13T09:34:13.482Z,859.00
2022-11-13T09:39:12.839Z,888.00
2022-11-13T09:44:11.941Z,895.00
2022-11-13T09:49:10.257Z,915.00
2022-11-13T09:54:09.568Z,943.00
2022-11-13T09:59:09.874Z,954.00
2022-11-13T10:04:14.057Z,968.00
2022-11-13T10:09:08.486Z,981.00
2022-11-13T10:14:07.754Z,1007.00
2022-11-13T10:19:07.047Z,1008.00
2022-11-13T10:24:06.602Z,1028.00
2022-11-13T10:29:05.642Z,774.00
2022-11-13T10:34:03.792Z,755.00
2022-11-13T10:39:04.123Z,729.00
2022-11-13T10:44:02.431Z,729.00
2022-11-13T10:49:01.729Z,715.00
2022-11-13T10:54:01.049Z,700.00
2022-11-13T10:59:00.381Z,699.00
2022-11-13T11:03:59.568Z,695.00
2022-11-13T11:08:59.755Z,670.00
2022-11-13T11:13:57.934Z,656.00
2022-11-13T11:18:57.154Z,664.00
2022-11-13T11:23:56.531Z,662.00
2022-11-13T11:28:55.558Z,655.00
2022-11-13T11:33:54.877Z,655.00
2022-11-13T11:38:54.064Z,639.00
2022-11-13T11:43:53.253Z,647.00
2022-11-13T11:48:52.425Z,637.00
2022-11-13T11:53:51.589Z,629.00
2022-11-13T11:58:51.833Z,627.00
2022-11-13T12:03:49.956Z,632.00
2022-11-13T12:08:49.156Z,649.00
2022-11-13T12:13:49.358Z,619.00
2022-11-13T12:18:47.526Z,608.00
2022-11-13T12:23:46.795Z,636.00
2022-11-13T12:28:45.978Z,608.00
2022-11-13T12:33:45.226Z,642.00
2022-11-13T12:38:44.385Z,597.00
2022-11-13T12:43:44.563Z,612.00
2022-11-13T12:48:42.726Z,582.00
2022-11-13T12:53:41.883Z,630.00
2022-11-13T12:58:43.046Z,575.00
2022-11-13T13:03:40.221Z,615.00
2022-11-13T13:08:39.416Z,622.00
2022-11-13T13:13:37.597Z,613.00
2022-11-13T13:18:37.787Z,640.00
2022-11-13T13:23:37.978Z,601.00
2022-11-13T13:28:36.150Z,599.00
2022-11-13T13:33:36.366Z,660.00
2022-11-13T13:38:35.552Z,618.00
2022-11-13T13:43:34.715Z,628.00
2022-11-13T13:48:35.893Z,650.00
2022-11-13T13:53:32.138Z,773.00
2022-11-13T13:58:32.655Z,647.00
2022-11-13T14:03:30.483Z,651.00
2022-11-13T14:08:29.994Z,648.00
2022-11-13T14:13:28.933Z,642.00
2022-11-13T14:18:29.633Z,638.00
2022-11-13T14:23:27.284Z,633.00
2022-11-13T14:28:27.741Z,619.00
2022-11-13T14:33:25.998Z,634.00
2022-11-13T14:38:24.973Z,617.00
2022-11-13T14:43:24.176Z,643.00
2022-11-13T14:48:23.378Z,615.00
2022-11-13T14:53:22.567Z,618.00
2022-11-13T14:58:21.766Z,620.00
2022-11-13T15:03:21.035Z,629.00
2022-11-13T15:08:21.334Z,619.00
2022-11-13T15:13:19.798Z,605.00
2022-11-13T15:18:18.835Z,614.00
2022-11-13T15:23:18.204Z,601.00
2022-11-13T15:28:18.388Z,604.00
2022-11-13T15:33:17.796Z,606.00
2022-11-13T15:38:17.787Z,626.00
2022-11-13T15:43:15.406Z,616.00
2022-11-13T15:48:14.689Z,623.00
2022-11-13T15:53:14.681Z,600.00
2022-11-13T15:58:13.046Z,606.00
2022-11-13T16:03:12.007Z,606.00
2022-11-13T16:08:11.682Z,604.00
2022-11-13T16:13:11.811Z,597.00
2022-11-13T16:18:11.209Z,599.00
2022-11-13T16:23:10.248Z,603.00
2022-11-13T16:28:08.696Z,601.00
2022-11-13T16:33:07.660Z,599.00
2022-11-13T16:38:09.118Z,605.00
2022-11-13T16:43:07.523Z,592.00
2022-11-13T16:48:06.569Z,601.00
2022-11-13T16:53:05.033Z,618.00
2022-11-13T16:58:05.257Z,616.00
2022-11-13T17:03:04.356Z,636.00
2022-11-13T17:08:02.795Z,639.00
2022-11-13T17:13:02.930Z,642.00
2022-11-13T17:18:01.209Z,609.00
2022-11-13T17:23:00.667Z,756.00
2022-11-13T17:27:59.999Z,621.00
2022-11-13T17:32:59.174Z,618.00
2022-11-13T17:38:09.633Z,619.00
2022-11-13T17:42:57.252Z,651.00
2022-11-13T17:47:56.714Z,496.00
2022-11-13T17:52:56.022Z,568.00
2022-11-13T17:57:55.378Z,591.00
2022-11-13T18:02:55.556Z,563.00
2022-11-13T18:07:53.392Z,607.00
2022-11-13T18:12:52.901Z,649.00
2022-11-13T18:17:51.962Z,751.00
2022-11-13T18:22:51.281Z,584.00
2022-11-13T18:27:50.636Z,510.00
2022-11-13T18:32:54.169Z,641.00
2022-11-13T18:37:49.008Z,683.00
2022-11-13T18:42:49.056Z,576.00
2022-11-13T18:47:47.638Z,612.00
2022-11-13T18:52:47.843Z,599.00
2022-11-13T18:57:46.018Z,601.00
2022-11-13T19:02:45.085Z,590.00
2022-11-13T19:07:45.144Z,751.00
2022-11-13T19:12:43.254Z,543.00
2022-11-13T19:17:42.905Z,806.00
2022-11-13T19:22:44.843Z,535.00
2022-11-13T19:27:41.552Z,701.00
2022-11-13T19:32:40.866Z,656.00
2022-11-13T19:37:40.232Z,438.00
2022-11-13T19:42:41.965Z,582.00
2022-11-13T19:47:39.645Z,541.00
2022-11-13T19:52:38.402Z,785.00
2022-11-13T19:57:38.297Z,632.00
2022-11-13T20:02:36.488Z,519.00
2022-11-13T20:07:35.636Z,638.00
2022-11-13T20:12:38.876Z,587.00
2022-11-13T20:17:34.322Z,573.00
2022-11-13T20:22:33.439Z,658.00
2022-11-13T20:27:37.163Z,669.00
2022-11-13T20:32:32.101Z,581.00
2022-11-13T20:37:31.378Z,590.00
2022-11-13T20:42:33.682Z,612.00
2022-11-13T20:47:29.702Z,619.00
2022-11-13T20:52:29.814Z,433.00
2022-11-13T20:57:30.118Z,455.00
2022-11-13T21:02:28.545Z,641.00
2022-11-13T21:07:26.804Z,587.00
2022-11-13T21:12:26.147Z,524.00
2022-11-13T21:17:25.378Z,626.00
2022-11-13T21:22:24.751Z,750.00
2022-11-13T21:27:23.759Z,632.00
2022-11-13T21:32:23.095Z,561.00
2022-11-13T21:37:22.046Z,574.00
2022-11-13T21:42:21.374Z,571.00
2022-11-13T21:47:20.503Z,590.00
2022-11-13T21:52:19.877Z,626.00
2022-11-13T21:57:19.065Z,592.00
2022-11-13T22:02:18.247Z,615.00
2022-11-13T22:07:17.503Z,755.00
2022-11-13T22:12:16.738Z,638.00
2022-11-13T22:17:17.018Z,647.00
2022-11-13T22:22:15.169Z,747.00
2022-11-13T22:27:14.350Z,622.00
2022-11-13T22:32:13.465Z,616.00
2022-11-13T22:37:14.885Z,602.00
2022-11-13T22:42:12.006Z,625.00
2022-11-13T22:47:11.384Z,604.00
2022-11-13T22:52:10.504Z,677.00
2022-11-13T22:57:09.811Z,667.00
2022-11-13T23:02:10.120Z,675.00
2022-11-13T23:07:08.499Z,682.00
2022-11-13T23:12:07.608Z,700.00
2022-11-13T23:17:06.937Z,694.00
2022-11-13T23:22:06.333Z,666.00
2022-11-13T23:27:05.225Z,689.00
2022-11-13T23:32:04.542Z,701.00
2022-11-13T23:37:03.894Z,685.00
2022-11-13T23:42:03.056Z,724.00
2022-11-13T23:47:04.193Z,672.00
2022-11-13T23:52:01.553Z,693.00
2022-11-13T23:57:00.708Z,686.00
